Birgitte — LG6516 — position and weather

sailwx.info

Track history (hours):
 
Tides and Currents Weather Stations Pressure Air Temp Water Temp Dewpoint Dewpoint Depression Visibility Wind Speed Wind Dir Waves Ship Positions

Birgitte

Last reported at 2017-Nov-16 09:05 UTC. Time now 2017-Dec-12 21:57 UTC.
Position N 69°56' E 020°39'.
Warning: this ship's position is 26 days out of date.

Length 11 m.

Type: Fishing. MMSI: 257218700.

Date/timePositionNaut miles runAvg speedWind from/ knotsBaromVisibWave heightAir tempDewpointWater temp
2017-Nov-16 09:05N 69°56' E 020°39'1 8.4
2017-Nov-16 09:00N 69°56' E 020°37'4 8.3
2017-Nov-16 08:30N 69°59' E 020°28'4 8.3
2017-Nov-16 08:00N 70°01' E 020°18'4 7.1
2017-Nov-16 07:28N 70°03' E 020°08'0 0.4
2017-Nov-16 06:59N 70°03' E 020°08'0 0.5
2017-Nov-16 06:28N 70°03' E 020°08'0 0.3
2017-Nov-16 06:00N 70°03' E 020°08'0 0.6
2017-Nov-16 05:30N 70°03' E 020°07'3 5.3
2017-Nov-16 04:59N 70°04' E 019°60'0 0.0
2017-Nov-16 04:29N 70°04' E 019°60'0 0.0
2017-Nov-16 03:59N 70°04' E 019°60'0 0.0
2017-Nov-16 03:29N 70°04' E 019°60'0 0.0
2017-Nov-16 02:59N 70°04' E 019°60'0 0.0
2017-Nov-16 02:29N 70°04' E 019°60'0 0.0
2017-Nov-16 01:59N 70°04' E 019°60'0 0.0
2017-Nov-16 01:29N 70°04' E 019°60'0 0.0
2017-Nov-16 00:59N 70°04' E 019°60'0 0.0
2017-Nov-16 00:29N 70°04' E 019°60'0 0.0
2017-Nov-15 23:59N 70°04' E 019°60'0 0.0
2017-Nov-15 23:29N 70°04' E 019°60'0 0.0
2017-Nov-15 22:59N 70°04' E 019°60'0 0.0
2017-Nov-15 22:29N 70°04' E 019°60'0 0.0
2017-Nov-15 21:59N 70°04' E 019°60'0 0.0
2017-Nov-15 21:29N 70°04' E 019°60'0 0.0
2017-Nov-15 20:59N 70°04' E 019°60'0 0.0
2017-Nov-15 20:29N 70°04' E 019°60'0 0.0
2017-Nov-15 19:59N 70°04' E 019°60'0 0.0
2017-Nov-15 19:29N 70°04' E 019°60'0 0.0
2017-Nov-15 18:59N 70°04' E 019°60'0 0.0
2017-Nov-15 18:29N 70°04' E 019°60'0 0.0
2017-Nov-15 17:59N 70°04' E 019°60'0 0.0
2017-Nov-15 17:28N 70°04' E 019°60'0 0.0
2017-Nov-15 16:58N 70°04' E 019°60'0 0.0
2017-Nov-15 16:28N 70°04' E 019°60'0 0.0
2017-Nov-15 15:58N 70°04' E 019°60'0 0.0
2017-Nov-15 15:28N 70°04' E 019°60'0 0.0
2017-Nov-15 14:58N 70°04' E 019°60'0 0.0
2017-Nov-15 14:28N 70°04' E 019°60'0 0.0
2017-Nov-15 13:58N 70°04' E 019°60'0 0.0
2017-Nov-15 13:28N 70°04' E 019°60'0 0.0
2017-Nov-15 13:00N 70°04' E 019°60'0 0.1
2017-Nov-15 12:28N 70°04' E 019°60'2 4.0
2017-Nov-15 12:00N 70°03' E 020°04'1 2.1
2017-Nov-15 11:30N 70°02' E 020°05'0 0.2
2017-Nov-15 10:59N 70°02' E 020°05'0 0.5
2017-Nov-15 10:27N 70°03' E 020°06'0 0.4
2017-Nov-15 10:00N 70°03' E 020°06'0 0.5
2017-Nov-15 09:29N 70°03' E 020°07'0 0.3
2017-Nov-15 09:00N 70°03' E 020°07'0 0.3
2017-Nov-15 08:30N 70°03' E 020°08'0 0.3
2017-Nov-15 07:58N 70°03' E 020°08'0 0.3
2017-Nov-15 07:30N 70°03' E 020°08'0 0.3
2017-Nov-15 07:00N 70°03' E 020°08'0 0.4
2017-Nov-15 06:30N 70°03' E 020°08'3 5.8
2017-Nov-15 05:58N 70°04' E 019°60'0 0.0
2017-Nov-15 05:28N 70°04' E 019°60'0 0.0
2017-Nov-15 04:58N 70°04' E 019°60'0 0.0
2017-Nov-15 04:28N 70°04' E 019°60'0 0.0
2017-Nov-15 03:58N 70°04' E 019°60'0 0.0
2017-Nov-15 03:28N 70°04' E 019°60'0 0.0
2017-Nov-15 02:58N 70°04' E 019°60'0 0.0
2017-Nov-15 02:28N 70°04' E 019°60'0 0.0
2017-Nov-15 01:58N 70°04' E 019°60'0 0.0
2017-Nov-15 01:28N 70°04' E 019°60'0 0.0
2017-Nov-15 00:58N 70°04' E 019°60'0 0.0
2017-Nov-15 00:28N 70°04' E 019°60'0 0.0
2017-Nov-14 23:58N 70°04' E 019°60'0 0.0
2017-Nov-14 23:28N 70°04' E 019°60'0 0.0
2017-Nov-14 22:58N 70°04' E 019°60'0 0.0
2017-Nov-14 22:28N 70°04' E 019°60'0 0.0
2017-Nov-14 21:58N 70°04' E 019°60'0 0.0
2017-Nov-14 21:28N 70°04' E 019°60'0 0.0
2017-Nov-14 20:58N 70°04' E 019°60'0 0.0
2017-Nov-14 20:28N 70°04' E 019°60'0 0.0
2017-Nov-14 19:58N 70°04' E 019°60'0 0.0
2017-Nov-14 19:28N 70°04' E 019°60'0 0.0
2017-Nov-14 18:58N 70°04' E 019°60'0 0.0
2017-Nov-14 18:28N 70°04' E 019°60'0 0.0
2017-Nov-14 17:58N 70°04' E 019°60'0 0.0
2017-Nov-14 17:28N 70°04' E 019°60'0 0.0
2017-Nov-14 16:58N 70°04' E 019°60'0 0.0
2017-Nov-14 16:28N 70°04' E 019°60'0 0.0
2017-Nov-14 15:58N 70°04' E 019°60'0 0.0
2017-Nov-14 15:28N 70°04' E 019°60'0 0.0
2017-Nov-14 14:58N 70°04' E 019°60'0 0.0
2017-Nov-14 14:28N 70°04' E 019°60'0 0.0
2017-Nov-14 13:58N 70°04' E 019°60'0 0.1
2017-Nov-14 13:25N 70°04' E 019°60'2 3.8
2017-Nov-14 13:00N 70°04' E 020°04'2 3.0
2017-Nov-14 12:30N 70°02' E 020°05'2 3.0
2017-Nov-14 11:58N 70°04' E 020°08'1 3.0
2017-Nov-14 11:29N 70°02' E 020°06'1 2.5
2017-Nov-14 10:59N 70°03' E 020°08'0 0.7
2017-Nov-14 10:30N 70°03' E 020°08'0 0.4
2017-Nov-14 10:00N 70°03' E 020°08'1 1.0
2017-Nov-14 09:28N 70°03' E 020°08'0 0.5
2017-Nov-14 09:00N 70°03' E 020°08'0 0.4
2017-Nov-14 08:19N 70°03' E 020°07'0 1.5
2017-Nov-14 08:00N 70°03' E 020°06'0 0.4
2017-Nov-14 07:31N 70°03' E 020°06'1 1.3
2017-Nov-14 06:58N 70°03' E 020°08'0 0.5
2017-Nov-14 06:28N 70°03' E 020°08'3 6.3
2017-Nov-14 05:58N 70°04' E 019°60'0 0.0
2017-Nov-14 05:28N 70°04' E 019°60'0 0.0
2017-Nov-14 04:58N 70°04' E 019°60'0 0.0
2017-Nov-14 04:28N 70°04' E 019°60'0 0.0
2017-Nov-14 03:58N 70°04' E 019°60'0 0.0
2017-Nov-14 03:28N 70°04' E 019°60'0 0.0
2017-Nov-14 02:58N 70°04' E 019°60'0 0.0
2017-Nov-14 02:28N 70°04' E 019°60'0 0.0
2017-Nov-14 01:58N 70°04' E 019°60'0 0.0
2017-Nov-14 01:28N 70°04' E 019°60'0 0.0
2017-Nov-14 00:58N 70°04' E 019°60'0 0.0
2017-Nov-14 00:28N 70°04' E 019°60'0 0.0
2017-Nov-13 23:58N 70°04' E 019°60'0 0.0
2017-Nov-13 23:28N 70°04' E 019°60'0 0.0
2017-Nov-13 22:58N 70°04' E 019°60'0 0.0
2017-Nov-13 22:28N 70°04' E 019°60'0 0.0
2017-Nov-13 21:58N 70°04' E 019°60'0 0.0
2017-Nov-13 01:59N 70°04' E 019°60'0 0.0
2017-Nov-13 01:29N 70°04' E 019°60'0 0.0
2017-Nov-13 00:59N 70°04' E 019°60'0 0.0
2017-Nov-13 00:29N 70°04' E 019°60'0 0.0
2017-Nov-12 23:59N 70°04' E 019°60'0 0.0
2017-Nov-12 23:29N 70°04' E 019°60'0 0.0
2017-Nov-12 22:59N 70°04' E 019°60'0 0.0
2017-Nov-12 22:29N 70°04' E 019°60'0 0.0
2017-Nov-12 21:59N 70°04' E 019°60'0 0.0
2017-Nov-12 21:29N 70°04' E 019°60'0 0.0
2017-Nov-12 20:59N 70°04' E 019°60'0 0.0
2017-Nov-12 20:29N 70°04' E 019°60'0 0.0
2017-Nov-12 19:59N 70°04' E 019°60'0 0.0
2017-Nov-12 19:29N 70°04' E 019°60'0 0.0
2017-Nov-12 18:59N 70°04' E 019°60'0 0.0
2017-Nov-12 18:29N 70°04' E 019°60'0 0.0
2017-Nov-12 17:59N 70°04' E 019°60'0 0.0
2017-Nov-12 17:26N 70°04' E 019°60'0 0.0
2017-Nov-12 16:59N 70°04' E 019°60'0 0.0
2017-Nov-12 16:29N 70°04' E 019°60'0 0.0
2017-Nov-12 15:59N 70°04' E 019°60'0 0.0
2017-Nov-12 15:29N 70°04' E 019°60'0 0.0
2017-Nov-12 14:59N 70°04' E 019°60'1 1.3
2017-Nov-12 14:29N 70°04' E 020°01'1 2.4
2017-Nov-12 13:59N 70°03' E 020°03'2 3.2
2017-Nov-12 13:28N 70°03' E 020°08'0 0.3
2017-Nov-12 12:59N 70°03' E 020°07'0 0.8
2017-Nov-12 12:30N 70°03' E 020°08'0 0.2
2017-Nov-12 12:00N 70°03' E 020°08'0 0.5
2017-Nov-12 11:28N 70°03' E 020°08'0 0.3
2017-Nov-12 10:58N 70°03' E 020°08'1 1.3
2017-Nov-12 10:30N 70°03' E 020°06'1 2.7
2017-Nov-12 09:59N 70°03' E 020°10'4 8.4
2017-Nov-12 09:30N 70°02' E 020°21'4 8.3
2017-Nov-12 09:00N 70°01' E 020°33'4 8.0
2017-Nov-12 08:29N 70°03' E 020°45'4 7.6
2017-Nov-12 08:00N 70°04' E 020°54'3 4.0
2017-Nov-12 07:13N 70°07' E 020°57'1 0.5
2017-Nov-12 06:00N 70°07' E 020°58'1 1.1
2017-Nov-12 05:19N 70°06' E 020°59'0 0.2
2017-Nov-12 04:52N 70°06' E 020°58'3 7.4
2017-Nov-12 04:30N 70°04' E 021°02'2 0.1
2017-Nov-11 11:56N 70°02' E 020°58'3 6.8
2017-Nov-11 11:29N 70°05' E 021°01'0 0.8
2017-Nov-11 11:00N 70°05' E 020°60'3 5.0
2017-Nov-11 10:28N 70°07' E 020°56'1 1.4
2017-Nov-11 10:01N 70°07' E 020°57'4 7.6
2017-Nov-11 09:30N 70°04' E 020°52'4 8.9
2017-Nov-11 09:01N 70°02' E 020°40'4 8.4
2017-Nov-11 08:30N 70°02' E 020°27'4 7.6
2017-Nov-11 08:00N 70°03' E 020°17'3 5.4
2017-Nov-11 07:30N 70°03' E 020°09'0 0.9
2017-Nov-11 07:01N 70°03' E 020°08'0 0.5
2017-Nov-11 06:29N 70°03' E 020°08'0 0.3
2017-Nov-11 05:58N 70°03' E 020°08'1 1.1
2017-Nov-11 05:30N 70°03' E 020°07'3 5.0
2017-Nov-11 04:59N 70°04' E 019°60'0 0.0
2017-Nov-11 04:29N 70°04' E 019°60'0 0.0
2017-Nov-11 03:59N 70°04' E 019°60'0 0.0
2017-Nov-11 03:29N 70°04' E 019°60'0 0.0
2017-Nov-11 02:59N 70°04' E 019°60'0 0.0
2017-Nov-11 02:29N 70°04' E 019°60'0 0.0
2017-Nov-11 01:59N 70°04' E 019°60'0 0.0
2017-Nov-11 01:29N 70°04' E 019°60'0 0.0
2017-Nov-11 00:59N 70°04' E 019°60'0 0.0
2017-Nov-11 00:28N 70°04' E 019°60'0 0.0
2017-Nov-10 23:58N 70°04' E 019°60'0 0.0
2017-Nov-10 23:28N 70°04' E 019°60'0 0.0
2017-Nov-10 22:58N 70°04' E 019°60'0 0.0
2017-Nov-10 22:28N 70°04' E 019°60'0 0.0
2017-Nov-10 21:58N 70°04' E 019°60'0 0.0
2017-Nov-10 21:28N 70°04' E 019°60'0 0.0
2017-Nov-10 20:58N 70°04' E 019°60'0 0.0
2017-Nov-10 20:28N 70°04' E 019°60'0 0.0
2017-Nov-10 19:58N 70°04' E 019°60'0 0.0
2017-Nov-10 19:28N 70°04' E 019°60'0 0.0
2017-Nov-10 18:58N 70°04' E 019°60'0 0.0
2017-Nov-10 18:28N 70°04' E 019°60'0 0.0
2017-Nov-10 17:58N 70°04' E 019°60'0 0.0
2017-Nov-10 17:28N 70°04' E 019°60'0 0.0
2017-Nov-10 16:58N 70°04' E 019°60'0 0.0
2017-Nov-10 16:28N 70°04' E 019°60'0 0.0
2017-Nov-10 15:58N 70°04' E 019°60'0 0.0
2017-Nov-10 15:28N 70°04' E 019°60'0 0.0
2017-Nov-10 14:58N 70°04' E 019°60'0 0.0
2017-Nov-10 14:28N 70°04' E 019°60'0 0.1
2017-Nov-10 13:58N 70°04' E 019°60'0 0.1
2017-Nov-10 13:29N 70°04' E 019°60'3 5.6
2017-Nov-10 13:00N 70°05' E 020°07'1 2.4
2017-Nov-10 12:28N 70°05' E 020°11'0 0.3
2017-Nov-10 12:00N 70°06' E 020°11'0 0.7
2017-Nov-10 11:30N 70°05' E 020°11'0 0.5
2017-Nov-10 11:00N 70°05' E 020°10'0 0.4
2017-Nov-10 10:27N 70°05' E 020°11'0 0.8
2017-Nov-10 10:00N 70°06' E 020°12'0 0.4
2017-Nov-10 09:29N 70°06' E 020°11'0 0.7
2017-Nov-10 09:00N 70°06' E 020°11'3 6.0
2017-Nov-10 08:30N 70°08' E 020°17'2 4.1
2017-Nov-10 07:59N 70°10' E 020°22'1 1.9
2017-Nov-10 07:29N 70°10' E 020°23'0 0.2
2017-Nov-10 07:00N 70°11' E 020°23'5 9.2
2017-Nov-10 06:30N 70°07' E 020°15'4 8.8
2017-Nov-10 06:00N 70°03' E 020°07'0 0.8
2017-Nov-10 05:30N 70°03' E 020°08'0 0.5
2017-Nov-10 05:00N 70°03' E 020°07'3 5.9
2017-Nov-10 04:30N 70°05' E 019°60'0 0.4
2017-Nov-10 04:00N 70°04' E 019°60'0 0.0
2017-Nov-10 03:30N 70°04' E 019°60'0 0.0
2017-Nov-10 03:00N 70°04' E 019°60'0 0.0
2017-Nov-10 02:30N 70°04' E 019°60'0 0.0
2017-Nov-10 02:00N 70°04' E 019°60'0 0.0
2017-Nov-10 01:30N 70°04' E 019°60'0 0.0
2017-Nov-10 01:00N 70°04' E 019°60'0 0.0
2017-Nov-10 00:29N 70°04' E 019°60'0 0.0
2017-Nov-09 23:59N 70°04' E 019°60'0 0.0
2017-Nov-09 23:29N 70°04' E 019°60'0 0.0
2017-Nov-09 22:59N 70°04' E 019°60'0 0.0
2017-Nov-09 22:29N 70°04' E 019°60'0 0.0
2017-Nov-09 21:59N 70°04' E 019°60'0 0.0
2017-Nov-09 21:29N 70°04' E 019°60'0 0.0
2017-Nov-09 20:59N 70°04' E 019°60'0 0.0
2017-Nov-09 20:29N 70°04' E 019°60'0 0.0
2017-Nov-09 19:59N 70°04' E 019°60'0 0.0
2017-Nov-09 19:29N 70°04' E 019°60'0 0.0
2017-Nov-09 18:59N 70°04' E 019°60'0 0.0
2017-Nov-09 18:29N 70°04' E 019°60'0 0.0
2017-Nov-09 17:59N 70°04' E 019°60'0 0.0
2017-Nov-09 17:29N 70°04' E 019°60'0 0.0
2017-Nov-09 16:59N 70°04' E 019°60'0 0.0
2017-Nov-09 16:29N 70°04' E 019°60'0 0.0
2017-Nov-09 15:59N 70°04' E 019°60'0 0.0
2017-Nov-09 15:29N 70°04' E 019°60'0 0.0
2017-Nov-09 14:59N 70°04' E 019°60'0 0.0
2017-Nov-09 14:29N 70°04' E 019°60'0 0.0
2017-Nov-09 13:59N 70°04' E 019°60'0 0.0
2017-Nov-09 13:29N 70°04' E 019°60'0 0.0
2017-Nov-09 12:59N 70°04' E 019°60'0 0.0
2017-Nov-09 12:29N 70°04' E 019°60'0 0.0
2017-Nov-09 11:59N 70°04' E 019°60'0 0.0
2017-Nov-09 11:29N 70°04' E 019°60'0 0.0
2017-Nov-09 10:59N 70°04' E 019°60'0 0.0
2017-Nov-09 10:29N 70°04' E 019°60'0 0.0
2017-Nov-09 09:59N 70°04' E 019°60'0 0.0
2017-Nov-09 09:29N 70°04' E 019°60'0 0.0
2017-Nov-09 08:59N 70°04' E 019°60'0 0.0
2017-Nov-09 08:29N 70°04' E 019°60'0 0.0
2017-Nov-09 07:59N 70°04' E 019°60'0 0.0
2017-Nov-09 07:29N 70°04' E 019°60'0 0.0
2017-Nov-09 06:59N 70°04' E 019°60'0 0.0
2017-Nov-09 06:29N 70°04' E 019°60'0 0.0
2017-Nov-09 05:59N 70°04' E 019°60'0 0.0
2017-Nov-09 05:29N 70°04' E 019°60'0 0.0
2017-Nov-09 04:59N 70°04' E 019°60'0 0.0
2017-Nov-09 04:29N 70°04' E 019°60'0 0.0
2017-Nov-09 03:59N 70°04' E 019°60'0 0.0
2017-Nov-09 03:29N 70°04' E 019°60'0 0.0
2017-Nov-09 02:59N 70°04' E 019°60'0 0.0
2017-Nov-09 02:29N 70°04' E 019°60'0 0.0
2017-Nov-09 01:59N 70°04' E 019°60'0 0.0
2017-Nov-09 01:29N 70°04' E 019°60'0 0.0
2017-Nov-09 00:59N 70°04' E 019°60'0 0.0
2017-Nov-09 00:29N 70°04' E 019°60'0 0.0
2017-Nov-08 23:59N 70°04' E 019°60'0 0.0
2017-Nov-08 23:29N 70°04' E 019°60'0 0.0
2017-Nov-08 22:59N 70°04' E 019°60'0 0.0
2017-Nov-08 22:29N 70°04' E 019°60'0 0.0
2017-Nov-08 21:59N 70°04' E 019°60'0 0.0
2017-Nov-08 21:29N 70°04' E 019°60'0 0.0
2017-Nov-08 20:59N 70°04' E 019°60'0 0.0
2017-Nov-08 20:29N 70°04' E 019°60'0 0.0
2017-Nov-08 19:59N 70°04' E 019°60'0 0.0
2017-Nov-08 19:29N 70°04' E 019°60'0 0.0
2017-Nov-08 18:59N 70°04' E 019°60'0 0.0
2017-Nov-08 18:29N 70°04' E 019°60'0 0.0
2017-Nov-08 17:58N 70°04' E 019°60'0 0.0
2017-Nov-08 17:28N 70°04' E 019°60'0 0.0
2017-Nov-08 16:58N 70°04' E 019°60'0 0.0
2017-Nov-08 16:28N 70°04' E 019°60'0 0.0
2017-Nov-08 15:58N 70°04' E 019°60'0 0.0
2017-Nov-08 15:28N 70°04' E 019°60'0 0.0
2017-Nov-08 14:58N 70°04' E 019°60'0 0.0
2017-Nov-08 14:28N 70°04' E 019°60'0 0.0
2017-Nov-08 13:49N 70°04' E 019°60'0 0.0
2017-Nov-08 13:28N 70°04' E 019°60'0 0.0
2017-Nov-08 12:37N 70°04' E 019°60'0 0.0
2017-Nov-08 12:28N 70°04' E 019°60'2 2.9
2017-Nov-08 11:49N 70°05' E 020°05'2 0.9
2017-Nov-08 09:05N 70°05' E 020°12'0 0.5
2017-Nov-08 08:59N 70°05' E 020°12'0 0.9
2017-Nov-08 08:30N 70°06' E 020°11'0 0.3
2017-Nov-08 08:00N 70°05' E 020°11'0 0.3
2017-Nov-08 07:30N 70°05' E 020°10'0 0.2
2017-Nov-08 06:59N 70°05' E 020°10'3 5.1
2017-Nov-08 06:30N 70°03' E 020°08'0 0.1
2017-Nov-08 05:59N 70°03' E 020°08'1 2.6
2017-Nov-08 05:30N 70°04' E 020°05'2 3.6
2017-Nov-08 04:58N 70°04' E 019°60'0 0.0
2017-Nov-08 04:28N 70°04' E 019°60'0 0.0
2017-Nov-08 03:58N 70°04' E 019°60'0 0.0
2017-Nov-08 03:28N 70°04' E 019°60'0 0.0
2017-Nov-08 02:58N 70°04' E 019°60'0 0.0
2017-Nov-08 02:28N 70°04' E 019°60'0 0.0
2017-Nov-08 01:58N 70°04' E 019°60'0 0.0
2017-Nov-08 01:28N 70°04' E 019°60'0 0.0
2017-Nov-08 00:58N 70°04' E 019°60'0 0.0
2017-Nov-08 00:28N 70°04' E 019°60'0 0.0
2017-Nov-07 22:40N 70°04' E 019°60'0 0.0
2017-Nov-07 22:28N 70°04' E 019°60'0 0.0
2017-Nov-07 21:58N 70°04' E 019°60'0 0.0
2017-Nov-07 21:28N 70°04' E 019°60'0 0.0
2017-Nov-07 20:58N 70°04' E 019°60'0 0.0
2017-Nov-07 20:28N 70°04' E 019°60'0 0.0
2017-Nov-07 19:58N 70°04' E 019°60'0 0.0
2017-Nov-07 19:28N 70°04' E 019°60'0 0.0
2017-Nov-07 18:58N 70°04' E 019°60'0 0.0
2017-Nov-07 18:28N 70°04' E 019°60'0 0.0
2017-Nov-07 17:58N 70°04' E 019°60'0 0.0
2017-Nov-07 17:28N 70°04' E 019°60'0 0.0
2017-Nov-07 16:58N 70°04' E 019°60'0 0.0
2017-Nov-07 16:28N 70°04' E 019°60'0 0.0
2017-Nov-07 15:58N 70°04' E 019°60'0 0.0
2017-Nov-07 15:28N 70°04' E 019°60'0 0.0
2017-Nov-07 14:58N 70°04' E 019°60'0 0.0
2017-Nov-07 14:30N 70°04' E 019°60'4 8.4
2017-Nov-07 14:00N 70°06' E 020°11'3 6.4
2017-Nov-07 13:30N 70°08' E 020°18'2 3.6
2017-Nov-07 13:00N 70°10' E 020°22'1 1.4
2017-Nov-07 12:30N 70°10' E 020°23'0 0.9
2017-Nov-07 12:00N 70°11' E 020°23'3 6.5
2017-Nov-07 11:28N 70°08' E 020°17'3 6.4
2017-Nov-07 11:00N 70°06' E 020°12'0 0.5
2017-Nov-07 10:30N 70°06' E 020°11'1 1.0
2017-Nov-07 09:59N 70°05' E 020°12'0 0.2
2017-Nov-07 09:29N 70°05' E 020°12'0 0.3
2017-Nov-07 08:59N 70°05' E 020°12'0 0.5
2017-Nov-07 08:29N 70°05' E 020°11'0 0.6
2017-Nov-07 08:00N 70°05' E 020°11'0 0.3
2017-Nov-07 07:31N 70°05' E 020°11'0 0.4
2017-Nov-07 07:00N 70°05' E 020°10'1 1.2
2017-Nov-07 06:29N 70°05' E 020°09'1 2.9
2017-Nov-07 06:00N 70°03' E 020°08'1 2.6
2017-Nov-07 05:29N 70°04' E 020°04'2 3.4
2017-Nov-07 05:00N 70°04' E 019°60'0 0.0
2017-Nov-07 04:30N 70°04' E 019°60'0 0.0
2017-Nov-07 04:00N 70°04' E 019°60'0 0.0
2017-Nov-07 03:30N 70°04' E 019°60'0 0.0
2017-Nov-07 03:00N 70°04' E 019°60'0 0.0
2017-Nov-07 02:30N 70°04' E 019°60'0 0.0
2017-Nov-07 02:00N 70°04' E 019°60'0 0.0
2017-Nov-07 01:30N 70°04' E 019°60'0 0.0
2017-Nov-07 01:00N 70°04' E 019°60'0 0.0
2017-Nov-07 00:30N 70°04' E 019°60'0 0.0
2017-Nov-07 00:00N 70°04' E 019°60'0 0.0
2017-Nov-06 23:30N 70°04' E 019°60'0 0.0
2017-Nov-06 23:00N 70°04' E 019°60'0 0.0
2017-Nov-06 22:30N 70°04' E 019°60'0 0.0
2017-Nov-06 22:00N 70°04' E 019°60'0 0.0
2017-Nov-06 21:30N 70°04' E 019°60'0 0.0
2017-Nov-06 21:00N 70°04' E 019°60'0 0.0
2017-Nov-06 20:30N 70°04' E 019°60'  
Track history (hours):
 
Tides and Currents Weather Stations Pressure Air Temp Water Temp Dewpoint Dewpoint Depression Visibility Wind Speed Wind Dir Waves Ship Positions

Birgitte

Last reported at 2017-Nov-16 09:05 UTC. Time now 2017-Dec-12 21:57 UTC.
Position N 69°56' E 020°39'.
Warning: this ship's position is 26 days out of date.

Length 11 m.

Type: Fishing. MMSI: 257218700.

Date/timePositionNaut miles runAvg speedWind from/ knotsBaromVisibWave heightAir tempDewpointWater temp
2017-Nov-16 09:05N 69°56' E 020°39'1 8.4
2017-Nov-16 09:00N 69°56' E 020°37'4 8.3
2017-Nov-16 08:30N 69°59' E 020°28'4 8.3
2017-Nov-16 08:00N 70°01' E 020°18'4 7.1
2017-Nov-16 07:28N 70°03' E 020°08'0 0.4
2017-Nov-16 06:59N 70°03' E 020°08'0 0.5
2017-Nov-16 06:28N 70°03' E 020°08'0 0.3
2017-Nov-16 06:00N 70°03' E 020°08'0 0.6
2017-Nov-16 05:30N 70°03' E 020°07'3 5.3
2017-Nov-16 04:59N 70°04' E 019°60'0 0.0
2017-Nov-16 04:29N 70°04' E 019°60'0 0.0
2017-Nov-16 03:59N 70°04' E 019°60'0 0.0
2017-Nov-16 03:29N 70°04' E 019°60'0 0.0
2017-Nov-16 02:59N 70°04' E 019°60'0 0.0
2017-Nov-16 02:29N 70°04' E 019°60'0 0.0
2017-Nov-16 01:59N 70°04' E 019°60'0 0.0
2017-Nov-16 01:29N 70°04' E 019°60'0 0.0
2017-Nov-16 00:59N 70°04' E 019°60'0 0.0
2017-Nov-16 00:29N 70°04' E 019°60'0 0.0
2017-Nov-15 23:59N 70°04' E 019°60'0 0.0
2017-Nov-15 23:29N 70°04' E 019°60'0 0.0
2017-Nov-15 22:59N 70°04' E 019°60'0 0.0
2017-Nov-15 22:29N 70°04' E 019°60'0 0.0
2017-Nov-15 21:59N 70°04' E 019°60'0 0.0
2017-Nov-15 21:29N 70°04' E 019°60'0 0.0
2017-Nov-15 20:59N 70°04' E 019°60'0 0.0
2017-Nov-15 20:29N 70°04' E 019°60'0 0.0
2017-Nov-15 19:59N 70°04' E 019°60'0 0.0
2017-Nov-15 19:29N 70°04' E 019°60'0 0.0
2017-Nov-15 18:59N 70°04' E 019°60'0 0.0
2017-Nov-15 18:29N 70°04' E 019°60'0 0.0
2017-Nov-15 17:59N 70°04' E 019°60'0 0.0
2017-Nov-15 17:28N 70°04' E 019°60'0 0.0
2017-Nov-15 16:58N 70°04' E 019°60'0 0.0
2017-Nov-15 16:28N 70°04' E 019°60'0 0.0
2017-Nov-15 15:58N 70°04' E 019°60'0 0.0
2017-Nov-15 15:28N 70°04' E 019°60'0 0.0
2017-Nov-15 14:58N 70°04' E 019°60'0 0.0
2017-Nov-15 14:28N 70°04' E 019°60'0 0.0
2017-Nov-15 13:58N 70°04' E 019°60'0 0.0
2017-Nov-15 13:28N 70°04' E 019°60'0 0.0
2017-Nov-15 13:00N 70°04' E 019°60'0 0.1
2017-Nov-15 12:28N 70°04' E 019°60'2 4.0
2017-Nov-15 12:00N 70°03' E 020°04'1 2.1
2017-Nov-15 11:30N 70°02' E 020°05'0 0.2
2017-Nov-15 10:59N 70°02' E 020°05'0 0.5
2017-Nov-15 10:27N 70°03' E 020°06'0 0.4
2017-Nov-15 10:00N 70°03' E 020°06'0 0.5
2017-Nov-15 09:29N 70°03' E 020°07'0 0.3
2017-Nov-15 09:00N 70°03' E 020°07'0 0.3
2017-Nov-15 08:30N 70°03' E 020°08'0 0.3
2017-Nov-15 07:58N 70°03' E 020°08'0 0.3
2017-Nov-15 07:30N 70°03' E 020°08'0 0.3
2017-Nov-15 07:00N 70°03' E 020°08'0 0.4
2017-Nov-15 06:30N 70°03' E 020°08'3 5.8
2017-Nov-15 05:58N 70°04' E 019°60'0 0.0
2017-Nov-15 05:28N 70°04' E 019°60'0 0.0
2017-Nov-15 04:58N 70°04' E 019°60'0 0.0
2017-Nov-15 04:28N 70°04' E 019°60'0 0.0
2017-Nov-15 03:58N 70°04' E 019°60'0 0.0
2017-Nov-15 03:28N 70°04' E 019°60'0 0.0
2017-Nov-15 02:58N 70°04' E 019°60'0 0.0
2017-Nov-15 02:28N 70°04' E 019°60'0 0.0
2017-Nov-15 01:58N 70°04' E 019°60'0 0.0
2017-Nov-15 01:28N 70°04' E 019°60'0 0.0
2017-Nov-15 00:58N 70°04' E 019°60'0 0.0
2017-Nov-15 00:28N 70°04' E 019°60'0 0.0
2017-Nov-14 23:58N 70°04' E 019°60'0 0.0
2017-Nov-14 23:28N 70°04' E 019°60'0 0.0
2017-Nov-14 22:58N 70°04' E 019°60'0 0.0
2017-Nov-14 22:28N 70°04' E 019°60'0 0.0
2017-Nov-14 21:58N 70°04' E 019°60'0 0.0
2017-Nov-14 21:28N 70°04' E 019°60'0 0.0
2017-Nov-14 20:58N 70°04' E 019°60'0 0.0
2017-Nov-14 20:28N 70°04' E 019°60'0 0.0
2017-Nov-14 19:58N 70°04' E 019°60'0 0.0
2017-Nov-14 19:28N 70°04' E 019°60'0 0.0
2017-Nov-14 18:58N 70°04' E 019°60'0 0.0
2017-Nov-14 18:28N 70°04' E 019°60'0 0.0
2017-Nov-14 17:58N 70°04' E 019°60'0 0.0
2017-Nov-14 17:28N 70°04' E 019°60'0 0.0
2017-Nov-14 16:58N 70°04' E 019°60'0 0.0
2017-Nov-14 16:28N 70°04' E 019°60'0 0.0
2017-Nov-14 15:58N 70°04' E 019°60'0 0.0
2017-Nov-14 15:28N 70°04' E 019°60'0 0.0
2017-Nov-14 14:58N 70°04' E 019°60'0 0.0
2017-Nov-14 14:28N 70°04' E 019°60'0 0.0
2017-Nov-14 13:58N 70°04' E 019°60'0 0.1
2017-Nov-14 13:25N 70°04' E 019°60'2 3.8
2017-Nov-14 13:00N 70°04' E 020°04'2 3.0
2017-Nov-14 12:30N 70°02' E 020°05'2 3.0
2017-Nov-14 11:58N 70°04' E 020°08'1 3.0
2017-Nov-14 11:29N 70°02' E 020°06'1 2.5
2017-Nov-14 10:59N 70°03' E 020°08'0 0.7
2017-Nov-14 10:30N 70°03' E 020°08'0 0.4
2017-Nov-14 10:00N 70°03' E 020°08'1 1.0
2017-Nov-14 09:28N 70°03' E 020°08'0 0.5
2017-Nov-14 09:00N 70°03' E 020°08'0 0.4
2017-Nov-14 08:19N 70°03' E 020°07'0 1.5
2017-Nov-14 08:00N 70°03' E 020°06'0 0.4
2017-Nov-14 07:31N 70°03' E 020°06'1 1.3
2017-Nov-14 06:58N 70°03' E 020°08'0 0.5
2017-Nov-14 06:28N 70°03' E 020°08'3 6.3
2017-Nov-14 05:58N 70°04' E 019°60'0 0.0
2017-Nov-14 05:28N 70°04' E 019°60'0 0.0
2017-Nov-14 04:58N 70°04' E 019°60'0 0.0
2017-Nov-14 04:28N 70°04' E 019°60'0 0.0
2017-Nov-14 03:58N 70°04' E 019°60'0 0.0
2017-Nov-14 03:28N 70°04' E 019°60'0 0.0
2017-Nov-14 02:58N 70°04' E 019°60'0 0.0
2017-Nov-14 02:28N 70°04' E 019°60'0 0.0
2017-Nov-14 01:58N 70°04' E 019°60'0 0.0
2017-Nov-14 01:28N 70°04' E 019°60'0 0.0
2017-Nov-14 00:58N 70°04' E 019°60'0 0.0
2017-Nov-14 00:28N 70°04' E 019°60'0 0.0
2017-Nov-13 23:58N 70°04' E 019°60'0 0.0
2017-Nov-13 23:28N 70°04' E 019°60'0 0.0
2017-Nov-13 22:58N 70°04' E 019°60'0 0.0
2017-Nov-13 22:28N 70°04' E 019°60'0 0.0
2017-Nov-13 21:58N 70°04' E 019°60'0 0.0
2017-Nov-13 01:59N 70°04' E 019°60'0 0.0
2017-Nov-13 01:29N 70°04' E 019°60'0 0.0
2017-Nov-13 00:59N 70°04' E 019°60'0 0.0
2017-Nov-13 00:29N 70°04' E 019°60'0 0.0
2017-Nov-12 23:59N 70°04' E 019°60'0 0.0
2017-Nov-12 23:29N 70°04' E 019°60'0 0.0
2017-Nov-12 22:59N 70°04' E 019°60'0 0.0
2017-Nov-12 22:29N 70°04' E 019°60'0 0.0
2017-Nov-12 21:59N 70°04' E 019°60'0 0.0
2017-Nov-12 21:29N 70°04' E 019°60'0 0.0
2017-Nov-12 20:59N 70°04' E 019°60'0 0.0
2017-Nov-12 20:29N 70°04' E 019°60'0 0.0
2017-Nov-12 19:59N 70°04' E 019°60'0 0.0
2017-Nov-12 19:29N 70°04' E 019°60'0 0.0
2017-Nov-12 18:59N 70°04' E 019°60'0 0.0
2017-Nov-12 18:29N 70°04' E 019°60'0 0.0
2017-Nov-12 17:59N 70°04' E 019°60'0 0.0
2017-Nov-12 17:26N 70°04' E 019°60'0 0.0
2017-Nov-12 16:59N 70°04' E 019°60'0 0.0
2017-Nov-12 16:29N 70°04' E 019°60'0 0.0
2017-Nov-12 15:59N 70°04' E 019°60'0 0.0
2017-Nov-12 15:29N 70°04' E 019°60'0 0.0
2017-Nov-12 14:59N 70°04' E 019°60'1 1.3
2017-Nov-12 14:29N 70°04' E 020°01'1 2.4
2017-Nov-12 13:59N 70°03' E 020°03'2 3.2
2017-Nov-12 13:28N 70°03' E 020°08'0 0.3
2017-Nov-12 12:59N 70°03' E 020°07'0 0.8
2017-Nov-12 12:30N 70°03' E 020°08'0 0.2
2017-Nov-12 12:00N 70°03' E 020°08'0 0.5
2017-Nov-12 11:28N 70°03' E 020°08'0 0.3
2017-Nov-12 10:58N 70°03' E 020°08'1 1.3
2017-Nov-12 10:30N 70°03' E 020°06'1 2.7
2017-Nov-12 09:59N 70°03' E 020°10'4 8.4
2017-Nov-12 09:30N 70°02' E 020°21'4 8.3
2017-Nov-12 09:00N 70°01' E 020°33'4 8.0
2017-Nov-12 08:29N 70°03' E 020°45'4 7.6
2017-Nov-12 08:00N 70°04' E 020°54'3 4.0
2017-Nov-12 07:13N 70°07' E 020°57'1 0.5
2017-Nov-12 06:00N 70°07' E 020°58'1 1.1
2017-Nov-12 05:19N 70°06' E 020°59'0 0.2
2017-Nov-12 04:52N 70°06' E 020°58'3 7.4
2017-Nov-12 04:30N 70°04' E 021°02'2 0.1
2017-Nov-11 11:56N 70°02' E 020°58'3 6.8
2017-Nov-11 11:29N 70°05' E 021°01'0 0.8
2017-Nov-11 11:00N 70°05' E 020°60'3 5.0
2017-Nov-11 10:28N 70°07' E 020°56'1 1.4
2017-Nov-11 10:01N 70°07' E 020°57'4 7.6
2017-Nov-11 09:30N 70°04' E 020°52'4 8.9
2017-Nov-11 09:01N 70°02' E 020°40'4 8.4
2017-Nov-11 08:30N 70°02' E 020°27'4 7.6
2017-Nov-11 08:00N 70°03' E 020°17'3 5.4
2017-Nov-11 07:30N 70°03' E 020°09'0 0.9
2017-Nov-11 07:01N 70°03' E 020°08'0 0.5
2017-Nov-11 06:29N 70°03' E 020°08'0 0.3
2017-Nov-11 05:58N 70°03' E 020°08'1 1.1
2017-Nov-11 05:30N 70°03' E 020°07'3 5.0
2017-Nov-11 04:59N 70°04' E 019°60'0 0.0
2017-Nov-11 04:29N 70°04' E 019°60'0 0.0
2017-Nov-11 03:59N 70°04' E 019°60'0 0.0
2017-Nov-11 03:29N 70°04' E 019°60'0 0.0
2017-Nov-11 02:59N 70°04' E 019°60'0 0.0
2017-Nov-11 02:29N 70°04' E 019°60'0 0.0
2017-Nov-11 01:59N 70°04' E 019°60'0 0.0
2017-Nov-11 01:29N 70°04' E 019°60'0 0.0
2017-Nov-11 00:59N 70°04' E 019°60'0 0.0
2017-Nov-11 00:28N 70°04' E 019°60'0 0.0
2017-Nov-10 23:58N 70°04' E 019°60'0 0.0
2017-Nov-10 23:28N 70°04' E 019°60'0 0.0
2017-Nov-10 22:58N 70°04' E 019°60'0 0.0
2017-Nov-10 22:28N 70°04' E 019°60'0 0.0
2017-Nov-10 21:58N 70°04' E 019°60'0 0.0
2017-Nov-10 21:28N 70°04' E 019°60'0 0.0
2017-Nov-10 20:58N 70°04' E 019°60'0 0.0
2017-Nov-10 20:28N 70°04' E 019°60'0 0.0
2017-Nov-10 19:58N 70°04' E 019°60'0 0.0
2017-Nov-10 19:28N 70°04' E 019°60'0 0.0
2017-Nov-10 18:58N 70°04' E 019°60'0 0.0
2017-Nov-10 18:28N 70°04' E 019°60'0 0.0
2017-Nov-10 17:58N 70°04' E 019°60'0 0.0
2017-Nov-10 17:28N 70°04' E 019°60'0 0.0
2017-Nov-10 16:58N 70°04' E 019°60'0 0.0
2017-Nov-10 16:28N 70°04' E 019°60'0 0.0
2017-Nov-10 15:58N 70°04' E 019°60'0 0.0
2017-Nov-10 15:28N 70°04' E 019°60'0 0.0
2017-Nov-10 14:58N 70°04' E 019°60'0 0.0
2017-Nov-10 14:28N 70°04' E 019°60'0 0.1
2017-Nov-10 13:58N 70°04' E 019°60'0 0.1
2017-Nov-10 13:29N 70°04' E 019°60'3 5.6
2017-Nov-10 13:00N 70°05' E 020°07'1 2.4
2017-Nov-10 12:28N 70°05' E 020°11'0 0.3
2017-Nov-10 12:00N 70°06' E 020°11'0 0.7
2017-Nov-10 11:30N 70°05' E 020°11'0 0.5
2017-Nov-10 11:00N 70°05' E 020°10'0 0.4
2017-Nov-10 10:27N 70°05' E 020°11'0 0.8
2017-Nov-10 10:00N 70°06' E 020°12'0 0.4
2017-Nov-10 09:29N 70°06' E 020°11'0 0.7
2017-Nov-10 09:00N 70°06' E 020°11'3 6.0
2017-Nov-10 08:30N 70°08' E 020°17'2 4.1
2017-Nov-10 07:59N 70°10' E 020°22'1 1.9
2017-Nov-10 07:29N 70°10' E 020°23'0 0.2
2017-Nov-10 07:00N 70°11' E 020°23'5 9.2
2017-Nov-10 06:30N 70°07' E 020°15'4 8.8
2017-Nov-10 06:00N 70°03' E 020°07'0 0.8
2017-Nov-10 05:30N 70°03' E 020°08'0 0.5
2017-Nov-10 05:00N 70°03' E 020°07'3 5.9
2017-Nov-10 04:30N 70°05' E 019°60'0 0.4
2017-Nov-10 04:00N 70°04' E 019°60'0 0.0
2017-Nov-10 03:30N 70°04' E 019°60'0 0.0
2017-Nov-10 03:00N 70°04' E 019°60'0 0.0
2017-Nov-10 02:30N 70°04' E 019°60'0 0.0
2017-Nov-10 02:00N 70°04' E 019°60'0 0.0
2017-Nov-10 01:30N 70°04' E 019°60'0 0.0
2017-Nov-10 01:00N 70°04' E 019°60'0 0.0
2017-Nov-10 00:29N 70°04' E 019°60'0 0.0
2017-Nov-09 23:59N 70°04' E 019°60'0 0.0
2017-Nov-09 23:29N 70°04' E 019°60'0 0.0
2017-Nov-09 22:59N 70°04' E 019°60'0 0.0
2017-Nov-09 22:29N 70°04' E 019°60'0 0.0
2017-Nov-09 21:59N 70°04' E 019°60'0 0.0
2017-Nov-09 21:29N 70°04' E 019°60'0 0.0
2017-Nov-09 20:59N 70°04' E 019°60'0 0.0
2017-Nov-09 20:29N 70°04' E 019°60'0 0.0
2017-Nov-09 19:59N 70°04' E 019°60'0 0.0
2017-Nov-09 19:29N 70°04' E 019°60'0 0.0
2017-Nov-09 18:59N 70°04' E 019°60'0 0.0
2017-Nov-09 18:29N 70°04' E 019°60'0 0.0
2017-Nov-09 17:59N 70°04' E 019°60'0 0.0
2017-Nov-09 17:29N 70°04' E 019°60'0 0.0
2017-Nov-09 16:59N 70°04' E 019°60'0 0.0
2017-Nov-09 16:29N 70°04' E 019°60'0 0.0
2017-Nov-09 15:59N 70°04' E 019°60'0 0.0
2017-Nov-09 15:29N 70°04' E 019°60'0 0.0
2017-Nov-09 14:59N 70°04' E 019°60'0 0.0
2017-Nov-09 14:29N 70°04' E 019°60'0 0.0
2017-Nov-09 13:59N 70°04' E 019°60'0 0.0
2017-Nov-09 13:29N 70°04' E 019°60'0 0.0
2017-Nov-09 12:59N 70°04' E 019°60'0 0.0
2017-Nov-09 12:29N 70°04' E 019°60'0 0.0
2017-Nov-09 11:59N 70°04' E 019°60'0 0.0
2017-Nov-09 11:29N 70°04' E 019°60'0 0.0
2017-Nov-09 10:59N 70°04' E 019°60'0 0.0
2017-Nov-09 10:29N 70°04' E 019°60'0 0.0
2017-Nov-09 09:59N 70°04' E 019°60'0 0.0
2017-Nov-09 09:29N 70°04' E 019°60'0 0.0
2017-Nov-09 08:59N 70°04' E 019°60'0 0.0
2017-Nov-09 08:29N 70°04' E 019°60'0 0.0
2017-Nov-09 07:59N 70°04' E 019°60'0 0.0
2017-Nov-09 07:29N 70°04' E 019°60'0 0.0
2017-Nov-09 06:59N 70°04' E 019°60'0 0.0
2017-Nov-09 06:29N 70°04' E 019°60'0 0.0
2017-Nov-09 05:59N 70°04' E 019°60'0 0.0
2017-Nov-09 05:29N 70°04' E 019°60'0 0.0
2017-Nov-09 04:59N 70°04' E 019°60'0 0.0
2017-Nov-09 04:29N 70°04' E 019°60'0 0.0
2017-Nov-09 03:59N 70°04' E 019°60'0 0.0
2017-Nov-09 03:29N 70°04' E 019°60'0 0.0
2017-Nov-09 02:59N 70°04' E 019°60'0 0.0
2017-Nov-09 02:29N 70°04' E 019°60'0 0.0
2017-Nov-09 01:59N 70°04' E 019°60'0 0.0
2017-Nov-09 01:29N 70°04' E 019°60'0 0.0
2017-Nov-09 00:59N 70°04' E 019°60'0 0.0
2017-Nov-09 00:29N 70°04' E 019°60'0 0.0
2017-Nov-08 23:59N 70°04' E 019°60'0 0.0
2017-Nov-08 23:29N 70°04' E 019°60'0 0.0
2017-Nov-08 22:59N 70°04' E 019°60'0 0.0
2017-Nov-08 22:29N 70°04' E 019°60'0 0.0
2017-Nov-08 21:59N 70°04' E 019°60'0 0.0
2017-Nov-08 21:29N 70°04' E 019°60'0 0.0
2017-Nov-08 20:59N 70°04' E 019°60'0 0.0
2017-Nov-08 20:29N 70°04' E 019°60'0 0.0
2017-Nov-08 19:59N 70°04' E 019°60'0 0.0
2017-Nov-08 19:29N 70°04' E 019°60'0 0.0
2017-Nov-08 18:59N 70°04' E 019°60'0 0.0
2017-Nov-08 18:29N 70°04' E 019°60'0 0.0
2017-Nov-08 17:58N 70°04' E 019°60'0 0.0
2017-Nov-08 17:28N 70°04' E 019°60'0 0.0
2017-Nov-08 16:58N 70°04' E 019°60'0 0.0
2017-Nov-08 16:28N 70°04' E 019°60'0 0.0
2017-Nov-08 15:58N 70°04' E 019°60'0 0.0
2017-Nov-08 15:28N 70°04' E 019°60'0 0.0
2017-Nov-08 14:58N 70°04' E 019°60'0 0.0
2017-Nov-08 14:28N 70°04' E 019°60'0 0.0
2017-Nov-08 13:49N 70°04' E 019°60'0 0.0
2017-Nov-08 13:28N 70°04' E 019°60'0 0.0
2017-Nov-08 12:37N 70°04' E 019°60'0 0.0
2017-Nov-08 12:28N 70°04' E 019°60'2 2.9
2017-Nov-08 11:49N 70°05' E 020°05'2 0.9
2017-Nov-08 09:05N 70°05' E 020°12'0 0.5
2017-Nov-08 08:59N 70°05' E 020°12'0 0.9
2017-Nov-08 08:30N 70°06' E 020°11'0 0.3
2017-Nov-08 08:00N 70°05' E 020°11'0 0.3
2017-Nov-08 07:30N 70°05' E 020°10'0 0.2
2017-Nov-08 06:59N 70°05' E 020°10'3 5.1
2017-Nov-08 06:30N 70°03' E 020°08'0 0.1
2017-Nov-08 05:59N 70°03' E 020°08'1 2.6
2017-Nov-08 05:30N 70°04' E 020°05'2 3.6
2017-Nov-08 04:58N 70°04' E 019°60'0 0.0
2017-Nov-08 04:28N 70°04' E 019°60'0 0.0
2017-Nov-08 03:58N 70°04' E 019°60'0 0.0
2017-Nov-08 03:28N 70°04' E 019°60'0 0.0
2017-Nov-08 02:58N 70°04' E 019°60'0 0.0
2017-Nov-08 02:28N 70°04' E 019°60'0 0.0
2017-Nov-08 01:58N 70°04' E 019°60'0 0.0
2017-Nov-08 01:28N 70°04' E 019°60'0 0.0
2017-Nov-08 00:58N 70°04' E 019°60'0 0.0
2017-Nov-08 00:28N 70°04' E 019°60'0 0.0
2017-Nov-07 22:40N 70°04' E 019°60'0 0.0
2017-Nov-07 22:28N 70°04' E 019°60'0 0.0
2017-Nov-07 21:58N 70°04' E 019°60'0 0.0
2017-Nov-07 21:28N 70°04' E 019°60'0 0.0
2017-Nov-07 20:58N 70°04' E 019°60'0 0.0
2017-Nov-07 20:28N 70°04' E 019°60'0 0.0
2017-Nov-07 19:58N 70°04' E 019°60'0 0.0
2017-Nov-07 19:28N 70°04' E 019°60'0 0.0
2017-Nov-07 18:58N 70°04' E 019°60'0 0.0
2017-Nov-07 18:28N 70°04' E 019°60'0 0.0
2017-Nov-07 17:58N 70°04' E 019°60'0 0.0
2017-Nov-07 17:28N 70°04' E 019°60'0 0.0
2017-Nov-07 16:58N 70°04' E 019°60'0 0.0
2017-Nov-07 16:28N 70°04' E 019°60'0 0.0
2017-Nov-07 15:58N 70°04' E 019°60'0 0.0
2017-Nov-07 15:28N 70°04' E 019°60'0 0.0
2017-Nov-07 14:58N 70°04' E 019°60'0 0.0
2017-Nov-07 14:30N 70°04' E 019°60'4 8.4
2017-Nov-07 14:00N 70°06' E 020°11'3 6.4
2017-Nov-07 13:30N 70°08' E 020°18'2 3.6
2017-Nov-07 13:00N 70°10' E 020°22'1 1.4
2017-Nov-07 12:30N 70°10' E 020°23'0 0.9
2017-Nov-07 12:00N 70°11' E 020°23'3 6.5
2017-Nov-07 11:28N 70°08' E 020°17'3 6.4
2017-Nov-07 11:00N 70°06' E 020°12'0 0.5
2017-Nov-07 10:30N 70°06' E 020°11'1 1.0
2017-Nov-07 09:59N 70°05' E 020°12'0 0.2
2017-Nov-07 09:29N 70°05' E 020°12'0 0.3
2017-Nov-07 08:59N 70°05' E 020°12'0 0.5
2017-Nov-07 08:29N 70°05' E 020°11'0 0.6
2017-Nov-07 08:00N 70°05' E 020°11'0 0.3
2017-Nov-07 07:31N 70°05' E 020°11'0 0.4
2017-Nov-07 07:00N 70°05' E 020°10'1 1.2
2017-Nov-07 06:29N 70°05' E 020°09'1 2.9
2017-Nov-07 06:00N 70°03' E 020°08'1 2.6
2017-Nov-07 05:29N 70°04' E 020°04'2 3.4
2017-Nov-07 05:00N 70°04' E 019°60'0 0.0
2017-Nov-07 04:30N 70°04' E 019°60'0 0.0
2017-Nov-07 04:00N 70°04' E 019°60'0 0.0
2017-Nov-07 03:30N 70°04' E 019°60'0 0.0
2017-Nov-07 03:00N 70°04' E 019°60'0 0.0
2017-Nov-07 02:30N 70°04' E 019°60'0 0.0
2017-Nov-07 02:00N 70°04' E 019°60'0 0.0
2017-Nov-07 01:30N 70°04' E 019°60'0 0.0
2017-Nov-07 01:00N 70°04' E 019°60'0 0.0
2017-Nov-07 00:30N 70°04' E 019°60'0 0.0
2017-Nov-07 00:00N 70°04' E 019°60'0 0.0
2017-Nov-06 23:30N 70°04' E 019°60'0 0.0
2017-Nov-06 23:00N 70°04' E 019°60'0 0.0
2017-Nov-06 22:30N 70°04' E 019°60'0 0.0
2017-Nov-06 22:00N 70°04' E 019°60'0 0.0
2017-Nov-06 21:30N 70°04' E 019°60'0 0.0
2017-Nov-06 21:00N 70°04' E 019°60'0 0.0
2017-Nov-06 20:30N 70°04' E 019°60'  

Dump ship's entire track history